createdAt,value
2022-10-30T00:02:05.756Z,39.77
2022-10-30T00:04:35.349Z,41.33
2022-10-30T00:07:03.420Z,39.40
2022-10-30T00:09:31.563Z,45.20
2022-10-30T00:11:59.619Z,42.50
2022-10-30T00:14:27.661Z,35.90
2022-10-30T00:16:55.729Z,38.10
2022-10-30T00:19:23.897Z,34.00
2022-10-30T00:21:53.389Z,40.77
2022-10-30T00:24:21.454Z,37.20
2022-10-30T00:26:49.838Z,35.43
2022-10-30T00:29:18.076Z,45.37
2022-10-30T00:31:46.132Z,42.57
2022-10-30T00:34:14.263Z,39.07
2022-10-30T00:36:42.316Z,39.17
2022-10-30T00:39:11.860Z,36.00
2022-10-30T00:41:41.787Z,35.40
2022-10-30T00:44:36.406Z,39.53
2022-10-30T00:47:06.302Z,35.37
2022-10-30T00:49:36.429Z,35.43
2022-10-30T00:52:05.069Z,37.60
2022-10-30T00:54:34.547Z,40.13
2022-10-30T00:57:02.782Z,40.90
2022-10-30T00:59:32.184Z,36.77
2022-10-30T01:02:00.404Z,35.20
2022-10-30T01:04:30.240Z,36.53
2022-10-30T01:06:58.610Z,37.00
2022-10-30T01:09:26.797Z,37.57
2022-10-30T01:11:58.277Z,34.87
2022-10-30T01:14:26.422Z,40.13
2022-10-30T01:17:00.728Z,37.30
2022-10-30T01:19:32.444Z,36.20
2022-10-30T01:22:08.558Z,38.63
2022-10-30T01:24:43.342Z,38.13
2022-10-30T01:27:20.400Z,49.27
2022-10-30T01:29:53.526Z,41.00
2022-10-30T01:32:30.409Z,40.90
2022-10-30T01:35:00.701Z,45.90
2022-10-30T01:37:33.295Z,44.10
2022-10-30T01:40:06.140Z,47.20
2022-10-30T01:42:50.304Z,47.97
2022-10-30T01:45:22.869Z,47.47
2022-10-30T01:47:58.741Z,50.43
2022-10-30T01:50:31.559Z,46.00
2022-10-30T01:53:01.895Z,46.97
2022-10-30T01:55:35.662Z,56.80
2022-10-30T01:58:08.570Z,52.27
2022-10-30T02:00:36.627Z,53.07
2022-10-30T02:03:05.374Z,53.00
2022-10-30T02:05:36.566Z,51.27
2022-10-30T02:08:04.657Z,57.63
2022-10-30T02:10:32.773Z,55.40
2022-10-30T02:13:00.930Z,55.67
2022-10-30T02:15:30.377Z,56.13
2022-10-30T02:17:58.884Z,57.70
2022-10-30T02:20:28.688Z,61.30
2022-10-30T02:22:59.233Z,59.77
2022-10-30T02:25:27.926Z,62.67
2022-10-30T02:27:55.977Z,59.53
2022-10-30T02:30:24.073Z,63.60
2022-10-30T02:32:52.120Z,59.07
2022-10-30T02:35:20.195Z,59.97
2022-10-30T02:37:50.517Z,63.93
2022-10-30T02:40:18.688Z,59.50
2022-10-30T02:42:46.761Z,66.77
2022-10-30T02:45:15.047Z,61.13
2022-10-30T02:47:43.136Z,68.90
2022-10-30T02:50:11.591Z,66.10
2022-10-30T02:52:39.978Z,70.40
2022-10-30T02:55:10.111Z,65.03
2022-10-30T02:57:38.186Z,62.67
2022-10-30T03:00:07.435Z,63.90
2022-10-30T03:02:35.504Z,59.23
2022-10-30T03:05:03.724Z,65.30
2022-10-30T03:07:31.864Z,65.00
2022-10-30T03:10:00.026Z,60.50
2022-10-30T03:12:29.482Z,62.43
2022-10-30T03:14:57.670Z,57.50
2022-10-30T03:17:25.752Z,59.47
2022-10-30T03:19:53.945Z,61.43
2022-10-30T03:22:21.998Z,61.37
2022-10-30T03:24:50.146Z,56.17
2022-10-30T03:27:18.272Z,61.07
2022-10-30T03:29:47.764Z,53.83
2022-10-30T03:32:15.862Z,58.93
2022-10-30T03:34:43.988Z,50.13
2022-10-30T03:37:12.141Z,58.80
2022-10-30T03:39:40.283Z,54.63
2022-10-30T03:42:08.343Z,60.83
2022-10-30T03:44:36.472Z,53.73
2022-10-30T03:47:06.086Z,60.57
2022-10-30T03:49:34.181Z,62.10
2022-10-30T03:52:02.231Z,59.27
2022-10-30T03:54:30.322Z,62.37
2022-10-30T03:56:58.351Z,63.47
2022-10-30T03:59:26.548Z,63.33
2022-10-30T04:01:54.724Z,66.37
2022-10-30T04:04:24.455Z,62.80
2022-10-30T04:06:52.525Z,64.13
2022-10-30T04:09:20.672Z,65.67
2022-10-30T04:11:48.724Z,62.93
2022-10-30T04:14:16.872Z,65.77
2022-10-30T04:16:44.968Z,64.60
2022-10-30T04:19:13.114Z,62.00
2022-10-30T04:21:43.762Z,64.63
2022-10-30T04:24:14.170Z,64.63
2022-10-30T04:26:42.228Z,68.57
2022-10-30T04:29:10.349Z,61.90
2022-10-30T04:31:38.396Z,69.43
2022-10-30T04:34:06.534Z,65.50
2022-10-30T04:36:34.604Z,62.60
2022-10-30T04:39:04.141Z,71.30
2022-10-30T04:41:32.305Z,62.43
2022-10-30T04:44:00.435Z,57.70
2022-10-30T04:46:29.102Z,64.07
2022-10-30T04:48:57.429Z,67.63
2022-10-30T04:51:25.527Z,60.43
2022-10-30T04:53:54.277Z,73.50
2022-10-30T04:56:23.708Z,73.77
2022-10-30T04:58:52.455Z,62.00
2022-10-30T05:01:20.707Z,63.30
2022-10-30T05:03:52.015Z,68.60
2022-10-30T05:06:24.224Z,69.00
2022-10-30T05:08:52.488Z,64.53
2022-10-30T05:11:20.561Z,66.90
2022-10-30T05:13:50.080Z,65.20
2022-10-30T05:16:18.141Z,72.27
2022-10-30T05:18:46.246Z,73.97
2022-10-30T05:21:14.304Z,70.90
2022-10-30T05:23:42.359Z,74.77
2022-10-30T05:26:10.429Z,83.43
2022-10-30T05:28:38.476Z,91.67
2022-10-30T05:31:08.030Z,96.57
2022-10-30T05:33:36.066Z,87.10
2022-10-30T05:36:04.384Z,90.70
2022-10-30T05:38:32.460Z,96.40
2022-10-30T05:41:00.534Z,91.80
2022-10-30T05:43:28.635Z,92.43
2022-10-30T05:45:56.701Z,95.03
2022-10-30T05:48:26.171Z,96.23
2022-10-30T05:50:54.229Z,93.60
2022-10-30T05:53:22.369Z,80.73
2022-10-30T05:55:50.509Z,77.37
2022-10-30T05:58:18.596Z,85.93
2022-10-30T06:00:46.659Z,83.00
2022-10-30T06:03:14.826Z,71.63
2022-10-30T06:05:45.716Z,85.20
2022-10-30T06:08:13.788Z,84.47
2022-10-30T06:10:42.022Z,92.00
2022-10-30T06:13:11.489Z,93.37
2022-10-30T06:15:39.549Z,107.60
2022-10-30T06:18:07.645Z,84.20
2022-10-30T06:20:35.753Z,102.10
2022-10-30T06:23:06.095Z,104.73
2022-10-30T06:25:40.610Z,87.40
2022-10-30T06:28:10.472Z,82.60
2022-10-30T06:30:38.700Z,110.57
2022-10-30T06:33:07.707Z,88.53
2022-10-30T06:35:35.837Z,96.27
2022-10-30T06:38:05.654Z,98.97
2022-10-30T06:40:33.706Z,100.37
2022-10-30T06:43:02.222Z,107.30
2022-10-30T06:45:30.519Z,100.27
2022-10-30T06:47:58.811Z,112.30
2022-10-30T06:50:27.180Z,98.73
2022-10-30T06:52:56.020Z,96.63
2022-10-30T06:55:25.627Z,114.73
2022-10-30T06:57:57.354Z,100.60
2022-10-30T07:00:25.745Z,97.83
2022-10-30T07:03:01.764Z,108.43
2022-10-30T07:05:30.431Z,111.73
2022-10-30T07:07:59.066Z,106.80
2022-10-30T07:10:28.626Z,83.60
2022-10-30T07:12:58.919Z,82.80
2022-10-30T07:15:27.422Z,92.60
2022-10-30T07:17:59.471Z,82.47
2022-10-30T07:20:28.790Z,85.13
2022-10-30T07:22:56.888Z,79.87
2022-10-30T07:25:25.041Z,87.57
2022-10-30T07:27:54.837Z,81.73
2022-10-30T07:30:23.980Z,90.87
2022-10-30T07:32:59.034Z,88.40
2022-10-30T07:35:27.512Z,86.30
2022-10-30T07:37:55.670Z,95.87
2022-10-30T07:40:23.961Z,88.57
2022-10-30T07:42:58.941Z,89.97
2022-10-30T07:45:27.348Z,88.93
2022-10-30T07:47:55.822Z,80.97
2022-10-30T07:50:24.302Z,94.83
2022-10-30T07:52:52.344Z,91.73
2022-10-30T07:55:20.649Z,80.87
2022-10-30T07:57:48.749Z,84.17
2022-10-30T08:00:18.820Z,87.47
2022-10-30T08:02:50.323Z,81.53
2022-10-30T08:05:18.624Z,86.00
2022-10-30T08:07:47.646Z,82.07
2022-10-30T08:10:15.780Z,82.30
2022-10-30T08:12:45.955Z,78.03
2022-10-30T08:15:14.036Z,71.20
2022-10-30T08:17:46.996Z,77.87
2022-10-30T08:20:16.384Z,68.33
2022-10-30T08:22:48.210Z,68.00
2022-10-30T08:25:16.666Z,51.00
2022-10-30T08:27:52.775Z,57.80
2022-10-30T08:30:20.895Z,57.03
2022-10-30T08:32:50.351Z,63.27
2022-10-30T08:35:20.013Z,67.97
2022-10-30T08:37:48.431Z,65.83
2022-10-30T08:40:17.027Z,66.73
2022-10-30T08:42:51.005Z,65.70
2022-10-30T08:45:19.160Z,61.20
2022-10-30T08:47:47.235Z,53.73
2022-10-30T08:50:16.886Z,58.10
2022-10-30T08:52:45.195Z,55.70
2022-10-30T08:55:13.897Z,49.80
2022-10-30T08:57:42.002Z,58.00
2022-10-30T09:00:11.125Z,48.07
2022-10-30T09:02:40.540Z,53.67
2022-10-30T09:05:09.582Z,49.93
2022-10-30T09:07:39.149Z,46.70
2022-10-30T09:10:08.186Z,49.97
2022-10-30T09:12:36.297Z,43.73
2022-10-30T09:15:04.465Z,43.67
2022-10-30T09:17:32.550Z,46.97
2022-10-30T09:20:00.681Z,40.40
2022-10-30T09:22:28.810Z,39.73
2022-10-30T09:24:58.344Z,47.67
2022-10-30T09:27:27.631Z,39.63
2022-10-30T09:29:55.748Z,36.50
2022-10-30T09:32:23.819Z,37.30
2022-10-30T09:34:52.046Z,32.27
2022-10-30T09:37:20.349Z,35.57
2022-10-30T09:39:48.499Z,33.90
2022-10-30T09:42:36.674Z,37.23
2022-10-30T09:45:34.109Z,33.77
2022-10-30T09:48:10.200Z,32.67
2022-10-30T09:50:40.124Z,26.47
2022-10-30T09:53:12.074Z,26.43
2022-10-30T09:55:43.208Z,21.07
2022-10-30T09:58:21.514Z,23.03
2022-10-30T10:00:52.365Z,22.33
2022-10-30T10:03:27.710Z,19.77
2022-10-30T10:05:57.254Z,21.90
2022-10-30T10:08:28.308Z,22.03
2022-10-30T10:10:58.158Z,20.43
2022-10-30T10:13:34.150Z,24.67
2022-10-30T10:16:06.656Z,18.27
2022-10-30T10:18:37.016Z,20.93
2022-10-30T10:21:10.504Z,19.40
2022-10-30T10:23:42.796Z,22.53
2022-10-30T10:26:16.139Z,21.67
2022-10-30T10:28:51.142Z,17.00
2022-10-30T10:31:25.931Z,17.13
2022-10-30T10:34:02.358Z,20.13
2022-10-30T10:36:35.173Z,17.27
2022-10-30T10:39:30.101Z,20.27
2022-10-30T10:42:06.812Z,20.87
2022-10-30T10:44:46.790Z,22.73
2022-10-30T10:47:40.992Z,19.40
2022-10-30T10:50:17.483Z,20.30
2022-10-30T10:52:48.862Z,21.60
2022-10-30T10:55:18.636Z,17.53
2022-10-30T10:57:46.746Z,20.37
2022-10-30T11:00:20.497Z,18.83
2022-10-30T11:02:49.842Z,18.40
2022-10-30T11:05:23.235Z,20.33
2022-10-30T11:07:51.634Z,17.07
2022-10-30T11:10:21.046Z,16.77
2022-10-30T11:12:49.298Z,18.20
2022-10-30T11:15:35.655Z,17.17
2022-10-30T11:20:43.109Z,17.97
2022-10-30T11:23:42.201Z,17.73
2022-10-30T11:26:30.673Z,15.90
2022-10-30T11:29:00.188Z,18.53
2022-10-30T11:31:34.837Z,16.30
2022-10-30T11:34:16.659Z,17.37
2022-10-30T11:36:44.794Z,16.03
2022-10-30T11:39:13.346Z,15.03
2022-10-30T11:41:41.470Z,17.10
2022-10-30T11:44:10.263Z,16.90
2022-10-30T11:46:39.909Z,14.57
2022-10-30T11:49:08.060Z,16.93
2022-10-30T11:51:37.728Z,15.77
2022-10-30T11:54:06.506Z,17.53
2022-10-30T11:56:35.593Z,16.50
2022-10-30T11:59:04.877Z,16.17
2022-10-30T12:01:34.535Z,15.87
2022-10-30T12:04:17.229Z,15.70
2022-10-30T12:06:45.320Z,19.50
2022-10-30T12:09:14.311Z,13.27
2022-10-30T12:11:44.499Z,16.50
2022-10-30T12:14:20.799Z,19.40
2022-10-30T12:16:49.945Z,18.20
2022-10-30T12:19:20.650Z,14.77
2022-10-30T12:21:49.878Z,15.87
2022-10-30T12:24:19.828Z,17.40
2022-10-30T12:26:48.830Z,16.47
2022-10-30T12:29:18.176Z,14.13
2022-10-30T12:31:49.459Z,19.70
2022-10-30T12:34:29.541Z,14.80
2022-10-30T12:37:00.731Z,14.73
2022-10-30T12:39:31.359Z,12.47
2022-10-30T12:42:01.520Z,16.63
2022-10-30T12:44:30.977Z,14.43
2022-10-30T12:47:02.736Z,14.73
2022-10-30T12:49:36.092Z,16.33
2022-10-30T12:52:06.949Z,15.27
2022-10-30T12:54:37.999Z,14.83
2022-10-30T12:57:08.961Z,14.07
2022-10-30T12:59:41.073Z,17.50
2022-10-30T13:02:15.278Z,22.63
2022-10-30T13:04:46.100Z,13.83
2022-10-30T13:07:17.340Z,18.70
2022-10-30T13:09:48.346Z,15.63
2022-10-30T13:12:18.139Z,13.70
2022-10-30T13:14:48.964Z,14.77
2022-10-30T13:17:17.234Z,19.67
2022-10-30T13:19:49.083Z,15.43
2022-10-30T13:22:20.210Z,14.40
2022-10-30T13:24:52.163Z,17.77
2022-10-30T13:27:22.728Z,12.83
2022-10-30T13:29:53.644Z,16.07
2022-10-30T13:32:29.556Z,16.07
2022-10-30T13:35:02.174Z,16.33
2022-10-30T13:37:32.855Z,14.03
2022-10-30T13:40:07.058Z,18.80
2022-10-30T13:42:42.344Z,13.00
2022-10-30T13:45:24.437Z,13.23
2022-10-30T13:47:58.320Z,18.50
2022-10-30T13:50:34.232Z,13.87
2022-10-30T13:53:03.467Z,17.70
2022-10-30T13:55:32.467Z,14.73
2022-10-30T13:58:03.219Z,16.60
2022-10-30T14:00:37.036Z,15.47
2022-10-30T14:03:22.586Z,13.10
2022-10-30T14:05:54.881Z,17.80
2022-10-30T14:08:28.176Z,12.50
2022-10-30T14:11:00.442Z,12.47
2022-10-30T14:13:29.735Z,14.60
2022-10-30T14:16:01.766Z,13.17
2022-10-30T14:18:48.841Z,15.83
2022-10-30T14:21:43.719Z,16.43
2022-10-30T14:24:19.882Z,12.70
2022-10-30T14:26:53.100Z,16.27
2022-10-30T14:29:43.490Z,11.07
2022-10-30T14:32:42.946Z,17.97
2022-10-30T14:35:54.005Z,12.33
2022-10-30T14:38:33.049Z,12.83
2022-10-30T14:41:23.788Z,16.23
2022-10-30T14:43:57.973Z,12.83
2022-10-30T14:46:29.957Z,12.33
2022-10-30T14:49:02.968Z,12.57
2022-10-30T14:51:34.795Z,12.87
2022-10-30T14:54:07.140Z,11.83
2022-10-30T14:56:37.896Z,12.80
2022-10-30T14:59:25.741Z,14.17
2022-10-30T15:02:07.063Z,14.50
2022-10-30T15:04:40.204Z,14.63
2022-10-30T15:07:12.754Z,13.83
2022-10-30T15:10:00.627Z,11.60
2022-10-30T15:12:46.060Z,16.83
2022-10-30T15:15:15.223Z,16.97
2022-10-30T15:17:44.355Z,15.57
2022-10-30T15:20:17.118Z,15.60
2022-10-30T15:22:45.467Z,17.73
2022-10-30T15:25:20.314Z,17.60
2022-10-30T15:27:48.875Z,16.27
2022-10-30T15:30:18.223Z,17.47
2022-10-30T15:32:46.387Z,17.90
2022-10-30T15:35:17.092Z,13.93
2022-10-30T15:38:01.428Z,15.53
2022-10-30T15:40:31.018Z,15.03
2022-10-30T15:43:00.373Z,16.20
2022-10-30T15:45:31.928Z,19.53
2022-10-30T15:48:02.224Z,15.53
2022-10-30T15:50:30.696Z,15.43
2022-10-30T15:52:59.033Z,16.60
2022-10-30T15:55:30.512Z,18.03
2022-10-30T15:58:04.862Z,16.20
2022-10-30T16:00:34.649Z,21.10
2022-10-30T16:03:03.986Z,18.00
2022-10-30T16:05:32.552Z,18.50
2022-10-30T16:08:02.086Z,16.77
2022-10-30T16:10:34.698Z,18.67
2022-10-30T16:13:03.297Z,15.67
2022-10-30T16:15:32.849Z,18.20
2022-10-30T16:18:07.815Z,21.97
2022-10-30T16:20:36.436Z,16.67
2022-10-30T16:23:05.441Z,20.53
2022-10-30T16:25:38.993Z,19.30
2022-10-30T16:28:26.447Z,16.37
2022-10-30T16:30:54.635Z,17.90
2022-10-30T16:33:25.243Z,17.47
2022-10-30T16:35:55.732Z,17.23
2022-10-30T16:38:24.379Z,18.80
2022-10-30T16:40:53.881Z,17.97
2022-10-30T16:43:27.028Z,15.50
2022-10-30T16:45:55.435Z,21.93
2022-10-30T16:48:28.106Z,18.67
2022-10-30T16:51:03.183Z,18.07
2022-10-30T16:53:31.371Z,18.93
2022-10-30T16:56:00.939Z,19.77
2022-10-30T16:58:30.625Z,19.30
2022-10-30T17:01:03.791Z,16.20
2022-10-30T17:03:33.259Z,20.70
2022-10-30T17:06:02.742Z,19.33
2022-10-30T17:08:42.695Z,20.57
2022-10-30T17:11:19.846Z,17.27
2022-10-30T17:14:02.354Z,19.43
2022-10-30T17:16:30.936Z,22.13
2022-10-30T17:18:59.829Z,19.17
2022-10-30T17:21:29.209Z,23.53
2022-10-30T17:23:58.398Z,23.60
2022-10-30T17:26:28.070Z,20.80
2022-10-30T17:28:56.291Z,31.30
2022-10-30T17:31:30.953Z,22.43
2022-10-30T17:34:14.391Z,20.90
2022-10-30T17:36:42.597Z,24.10
2022-10-30T17:39:10.864Z,24.87
2022-10-30T17:41:40.315Z,25.97
2022-10-30T17:44:08.962Z,26.87
2022-10-30T17:46:37.167Z,24.33
2022-10-30T17:49:05.335Z,29.10
2022-10-30T17:51:33.572Z,23.73
2022-10-30T17:54:01.690Z,26.23
2022-10-30T17:56:31.096Z,25.70
2022-10-30T17:59:00.589Z,25.40
2022-10-30T18:01:28.988Z,28.20
2022-10-30T18:03:57.479Z,31.20
2022-10-30T18:06:26.742Z,29.63
2022-10-30T18:08:55.127Z,27.13
2022-10-30T18:11:24.535Z,32.00
2022-10-30T18:13:53.406Z,27.33
2022-10-30T18:16:23.022Z,28.27
2022-10-30T18:18:52.223Z,27.00
2022-10-30T18:21:21.220Z,28.37
2022-10-30T18:23:53.748Z,27.37
2022-10-30T18:26:23.346Z,31.17
2022-10-30T18:28:51.703Z,28.97
2022-10-30T18:31:20.722Z,32.30
2022-10-30T18:33:50.324Z,33.93
2022-10-30T18:36:19.361Z,28.23
2022-10-30T18:38:47.499Z,27.17
2022-10-30T18:41:16.913Z,26.97
2022-10-30T18:43:46.977Z,27.33
2022-10-30T18:46:15.805Z,28.13
2022-10-30T18:48:43.960Z,30.97
2022-10-30T18:51:16.397Z,24.80
2022-10-30T18:53:51.227Z,25.37
2022-10-30T18:56:20.354Z,27.10
2022-10-30T18:58:48.592Z,26.03
2022-10-30T19:01:16.902Z,27.13
2022-10-30T19:03:45.610Z,32.43
2022-10-30T19:06:15.762Z,31.60
2022-10-30T19:08:44.026Z,23.47
2022-10-30T19:11:13.037Z,24.70
2022-10-30T19:13:41.611Z,28.70
2022-10-30T19:16:12.007Z,26.67
2022-10-30T19:18:40.346Z,25.27
2022-10-30T19:21:14.541Z,24.97
2022-10-30T19:23:45.599Z,24.50
2022-10-30T19:26:14.769Z,24.77
2022-10-30T19:28:43.309Z,24.13
2022-10-30T19:31:14.005Z,26.00
2022-10-30T19:33:42.771Z,26.93
2022-10-30T19:36:28.957Z,24.73
2022-10-30T19:39:00.053Z,24.53
2022-10-30T19:44:03.312Z,26.50
2022-10-30T19:46:31.479Z,24.27
2022-10-30T19:49:00.514Z,27.83
2022-10-30T19:51:29.050Z,24.67
2022-10-30T19:53:58.567Z,25.30
2022-10-30T19:56:26.757Z,28.87
2022-10-30T19:58:55.172Z,31.17
2022-10-30T20:01:23.463Z,31.80
2022-10-30T20:03:51.949Z,28.57
2022-10-30T20:06:21.614Z,27.50
2022-10-30T20:08:49.906Z,25.67
2022-10-30T20:11:19.427Z,31.23
2022-10-30T20:13:50.654Z,24.90
2022-10-30T20:16:22.073Z,24.83
2022-10-30T20:18:50.974Z,28.40
2022-10-30T20:21:19.149Z,29.33
2022-10-30T20:23:47.368Z,26.27
2022-10-30T20:26:20.157Z,29.23
2022-10-30T20:28:48.605Z,28.03
2022-10-30T20:31:16.835Z,28.57
2022-10-30T20:33:45.057Z,25.93
2022-10-30T20:36:13.604Z,25.23
2022-10-30T20:38:42.024Z,26.13
2022-10-30T20:41:22.178Z,26.57
2022-10-30T20:43:51.086Z,26.33
2022-10-30T20:46:20.393Z,23.83
2022-10-30T20:48:48.609Z,27.27
2022-10-30T20:51:16.852Z,27.83
2022-10-30T20:53:45.072Z,27.23
2022-10-30T20:56:13.327Z,30.87
2022-10-30T20:58:43.498Z,31.90
2022-10-30T21:01:13.752Z,27.77
2022-10-30T21:03:42.095Z,28.50
2022-10-30T21:06:10.208Z,26.87
2022-10-30T21:08:38.654Z,28.63
2022-10-30T21:11:07.571Z,29.03
2022-10-30T21:13:35.980Z,30.00
2022-10-30T21:16:06.572Z,29.47
2022-10-30T21:18:34.853Z,29.80
2022-10-30T21:21:03.179Z,33.07
2022-10-30T21:23:31.380Z,31.00
2022-10-30T21:26:02.797Z,31.80
2022-10-30T21:28:31.065Z,34.00
2022-10-30T21:31:02.199Z,34.40
2022-10-30T21:33:32.705Z,35.07
2022-10-30T21:36:10.641Z,31.97
2022-10-30T21:38:41.586Z,38.87
2022-10-30T21:41:09.986Z,37.10
2022-10-30T21:43:38.141Z,36.70
2022-10-30T21:46:07.241Z,33.37
2022-10-30T21:48:36.847Z,33.03
2022-10-30T21:51:11.715Z,31.03
2022-10-30T21:53:40.173Z,35.27
2022-10-30T21:56:09.160Z,31.30
2022-10-30T21:58:37.302Z,33.77
2022-10-30T22:01:05.671Z,31.97
2022-10-30T22:03:33.899Z,28.90
2022-10-30T22:06:08.548Z,30.77
2022-10-30T22:08:36.662Z,30.10
2022-10-30T22:11:05.711Z,33.53
2022-10-30T22:13:33.861Z,32.97
2022-10-30T22:16:02.035Z,34.07
2022-10-30T22:18:30.166Z,32.10
2022-10-30T22:21:01.880Z,36.60
2022-10-30T22:23:31.476Z,33.37
2022-10-30T22:26:00.536Z,34.10
2022-10-30T22:28:28.775Z,36.00
2022-10-30T22:30:56.978Z,40.23
2022-10-30T22:33:25.100Z,31.23
2022-10-30T22:35:53.196Z,36.27
2022-10-30T22:38:24.366Z,31.53
2022-10-30T22:40:53.888Z,29.77
2022-10-30T22:43:21.983Z,29.67
2022-10-30T22:45:54.236Z,31.90
2022-10-30T22:48:22.492Z,30.57
2022-10-30T22:50:57.900Z,27.40
2022-10-30T22:53:26.412Z,29.20
2022-10-30T22:55:56.020Z,34.90
2022-10-30T22:58:27.729Z,30.83
2022-10-30T23:00:55.833Z,32.23
2022-10-30T23:03:23.979Z,32.27
2022-10-30T23:05:59.596Z,29.53
2022-10-30T23:08:28.037Z,31.47
2022-10-30T23:10:57.611Z,29.47
2022-10-30T23:13:25.810Z,36.30
2022-10-30T23:15:56.224Z,30.33
2022-10-30T23:18:27.127Z,28.33
2022-10-30T23:21:00.387Z,31.10
2022-10-30T23:23:28.773Z,36.03
2022-10-30T23:26:03.043Z,28.33
2022-10-30T23:28:31.220Z,30.40
2022-10-30T23:30:59.342Z,30.97
2022-10-30T23:33:27.435Z,33.20
2022-10-30T23:35:59.871Z,30.67
2022-10-30T23:38:28.041Z,30.97
2022-10-30T23:40:57.685Z,28.40
2022-10-30T23:43:25.864Z,29.13
2022-10-30T23:45:54.013Z,34.10
2022-10-30T23:48:22.092Z,36.23
2022-10-30T23:50:50.159Z,28.80
2022-10-30T23:53:18.281Z,33.43
2022-10-30T23:55:51.009Z,30.47
2022-10-30T23:58:20.489Z,33.67
